Time;durP1;ratioP1;P1;durP2;ratioP2;P2;SDS_P1;SDS_P2;PMS_P1;PMS_P2;Temp;Humidity;BMP_temperature;BMP_pressure;BME280_temperature;BME280_humidity;BME280_pressure;Samples;Min_cycle;Max_cycle;Signal;HPM_P1;HPM_P2
2022/05/30 00:01:55;;;;;;;13.48;2.90;;;;;;;;;;5110680;28;20197;-75
2022/05/30 00:04:21;;;;;;;11.07;2.28;;;;;;;;;;5118179;27;20195;-75
2022/05/30 00:06:47;;;;;;;11.70;2.05;;;;;;;;;;5109105;27;20561;-75
2022/05/30 00:09:13;;;;;;;9.63;2.40;;;;;;;;;;5112818;28;20223;-74
2022/05/30 00:11:40;;;;;;;13.70;2.50;;;;;;;;;;5110546;27;20191;-75
2022/05/30 00:14:07;;;;;;;9.60;2.03;;;;;;;;;;5110921;28;20188;-75
2022/05/30 00:16:34;;;;;;;12.82;2.15;;;;;;;;;;5111892;27;20191;-75
2022/05/30 00:19:00;;;;;;;6.05;1.70;;;;;;;;;;5111047;28;20189;-76
2022/05/30 00:21:26;;;;;;;8.65;1.95;;;;;;;;;;5108206;28;20180;-75
2022/05/30 00:23:53;;;;;;;9.85;2.15;;;;;;;;;;5114377;27;20560;-74
2022/05/30 00:26:20;;;;;;;9.98;1.83;;;;;;;;;;5106802;27;20649;-76
2022/05/30 00:28:47;;;;;;;8.77;2.22;;;;;;;;;;5105905;27;20280;-74
2022/05/30 00:31:15;;;;;;;12.25;1.90;;;;;;;;;;5114993;27;20181;-75
2022/05/30 00:33:42;;;;;;;4.57;1.80;;;;;;;;;;5109613;27;20250;-76
2022/05/30 00:36:08;;;;;;;7.78;2.08;;;;;;;;;;5108442;27;20177;-75
2022/05/30 00:38:35;;;;;;;7.22;1.60;;;;;;;;;;5102663;28;20963;-74
2022/05/30 00:41:01;;;;;;;9.25;1.90;;;;;;;;;;5112716;27;20177;-75
2022/05/30 00:43:29;;;;;;;6.18;1.90;;;;;;;;;;5115273;27;20226;-76
2022/05/30 00:45:59;;;;;;;8.45;1.83;;;;;;;;;;5114885;27;20590;-75
2022/05/30 00:48:27;;;;;;;7.28;2.00;;;;;;;;;;5109775;27;20199;-74
2022/05/30 00:50:55;;;;;;;8.45;1.75;;;;;;;;;;5118586;27;20550;-74
2022/05/30 00:53:21;;;;;;;5.70;1.58;;;;;;;;;;5108348;28;20242;-75
2022/05/30 00:55:49;;;;;;;8.00;2.28;;;;;;;;;;5112848;27;20212;-74
2022/05/30 00:58:16;;;;;;;11.95;2.00;;;;;;;;;;5104838;28;20185;-75
2022/05/30 01:00:42;;;;;;;14.77;1.98;;;;;;;;;;5109940;28;20734;-74
2022/05/30 01:08:39;;;;;;;12.27;1.92;;;;;;;;;;5109673;28;20291;-73
2022/05/30 01:11:05;;;;;;;7.55;1.90;;;;;;;;;;5106722;27;20192;-75
2022/05/30 01:13:31;;;;;;;9.00;1.88;;;;;;;;;;5127302;27;20276;-74
2022/05/30 01:15:57;;;;;;;8.35;2.10;;;;;;;;;;5118767;27;20208;-76
2022/05/30 01:18:28;;;;;;;8.25;1.80;;;;;;;;;;5117074;27;20268;-75
2022/05/30 01:21:03;;;;;;;7.70;1.90;;;;;;;;;;5115880;27;20272;-74
2022/05/30 01:23:36;;;;;;;5.45;1.92;;;;;;;;;;5115178;27;20209;-74
2022/05/30 01:26:16;;;;;;;7.20;2.20;;;;;;;;;;5107126;28;20245;-75
2022/05/30 01:28:53;;;;;;;7.60;1.80;;;;;;;;;;5109540;27;20204;-75
2022/05/30 01:31:19;;;;;;;7.93;2.03;;;;;;;;;;5111098;27;20181;-72
2022/05/30 01:33:46;;;;;;;6.72;2.22;;;;;;;;;;5108294;28;20183;-74
2022/05/30 01:36:12;;;;;;;7.72;1.77;;;;;;;;;;5122091;27;20221;-74
2022/05/30 01:38:39;;;;;;;9.30;2.10;;;;;;;;;;5112236;27;20177;-74
2022/05/30 01:41:11;;;;;;;11.82;2.30;;;;;;;;;;5117557;27;20208;-75
2022/05/30 01:43:38;;;;;;;7.30;2.28;;;;;;;;;;5117428;27;20621;-74
2022/05/30 01:46:10;;;;;;;7.72;2.10;;;;;;;;;;5117386;27;20229;-74
2022/05/30 01:48:42;;;;;;;11.07;2.00;;;;;;;;;;5113641;27;20282;-75
2022/05/30 01:51:08;;;;;;;7.68;1.98;;;;;;;;;;5117039;27;20195;-74
2022/05/30 01:53:35;;;;;;;6.65;2.10;;;;;;;;;;5114893;27;20212;-74
2022/05/30 01:56:17;;;;;;;6.50;2.00;;;;;;;;;;5113788;27;20280;-75
2022/05/30 01:58:43;;;;;;;6.05;2.60;;;;;;;;;;5108753;27;20216;-74
2022/05/30 02:01:35;;;;;;;8.73;2.28;;;;;;;;;;5114418;27;20212;-75
2022/05/30 02:04:04;;;;;;;9.23;2.30;;;;;;;;;;5110797;27;20557;-74
2022/05/30 02:06:32;;;;;;;9.07;2.33;;;;;;;;;;5128052;27;20643;-76
2022/05/30 02:08:58;;;;;;;5.13;2.00;;;;;;;;;;5111949;27;20205;-75
2022/05/30 02:11:27;;;;;;;10.60;2.58;;;;;;;;;;5110455;27;20184;-76
2022/05/30 02:14:06;;;;;;;9.15;2.15;;;;;;;;;;5106823;28;20200;-74
2022/05/30 02:19:21;;;;;;;8.02;1.95;;;;;;;;;;5108490;27;20197;-75
2022/05/30 02:21:48;;;;;;;11.02;2.30;;;;;;;;;;5115166;27;20245;-76
2022/05/30 02:24:15;;;;;;;4.50;2.00;;;;;;;;;;5113549;27;20653;-75
2022/05/30 02:26:41;;;;;;;7.03;2.17;;;;;;;;;;5108088;28;20188;-75
2022/05/30 02:29:10;;;;;;;6.55;2.13;;;;;;;;;;5111777;27;20212;-74
2022/05/30 02:31:45;;;;;;;5.93;2.40;;;;;;;;;;5114653;27;20181;-75
2022/05/30 02:36:56;;;;;;;7.35;2.30;;;;;;;;;;5110767;27;20213;-75
2022/05/30 02:39:25;;;;;;;7.22;2.58;;;;;;;;;;5112707;27;20233;-74
2022/05/30 02:42:00;;;;;;;7.95;2.10;;;;;;;;;;5121537;27;20663;-75
2022/05/30 02:44:29;;;;;;;7.55;2.30;;;;;;;;;;5118774;27;20207;-73
2022/05/30 02:46:57;;;;;;;6.25;2.40;;;;;;;;;;5114463;27;20180;-75
2022/05/30 02:49:24;;;;;;;5.35;2.20;;;;;;;;;;5114743;27;20799;-75
2022/05/30 02:51:50;;;;;;;7.32;2.20;;;;;;;;;;5110997;27;20193;-75
2022/05/30 02:54:18;;;;;;;11.50;2.42;;;;;;;;;;5107724;27;20181;-74
2022/05/30 02:57:08;;;;;;;5.72;2.20;;;;;;;;;;5097677;28;20230;-74
2022/05/30 02:59:36;;;;;;;5.20;2.33;;;;;;;;;;5126805;27;20567;-74
2022/05/30 03:02:05;;;;;;;12.00;2.75;;;;;;;;;;5099854;28;20273;-76
2022/05/30 03:04:32;;;;;;;6.78;2.25;;;;;;;;;;5128904;27;20193;-73
2022/05/30 03:06:58;;;;;;;7.55;2.65;;;;;;;;;;5093640;28;20181;-74
2022/05/30 03:09:24;;;;;;;6.38;2.65;;;;;;;;;;5112567;28;20205;-75
2022/05/30 03:12:02;;;;;;;6.18;2.30;;;;;;;;;;5115812;28;20188;-74
2022/05/30 03:14:29;;;;;;;9.88;2.65;;;;;;;;;;5125639;27;20177;-75
2022/05/30 03:16:55;;;;;;;8.05;2.72;;;;;;;;;;5104412;28;20703;-75
2022/05/30 03:19:22;;;;;;;7.35;3.08;;;;;;;;;;5123979;27;20221;-75
2022/05/30 03:21:49;;;;;;;11.85;2.90;;;;;;;;;;5107375;28;20655;-74
2022/05/30 03:24:15;;;;;;;8.00;2.85;;;;;;;;;;5116645;28;20189;-74
2022/05/30 03:26:42;;;;;;;6.85;2.30;;;;;;;;;;5113001;28;20215;-74
2022/05/30 03:29:08;;;;;;;6.22;2.40;;;;;;;;;;5116963;28;20200;-74
2022/05/30 03:31:38;;;;;;;7.60;2.47;;;;;;;;;;5104867;28;20664;-75
2022/05/30 03:34:04;;;;;;;7.97;2.50;;;;;;;;;;5112037;28;20173;-74
2022/05/30 03:36:32;;;;;;;10.40;3.15;;;;;;;;;;5109615;28;20181;-73
2022/05/30 03:39:20;;;;;;;8.75;2.78;;;;;;;;;;5112099;28;20558;-74
2022/05/30 03:42:04;;;;;;;7.85;2.60;;;;;;;;;;5113174;28;20676;-75
2022/05/30 03:44:50;;;;;;;10.57;3.40;;;;;;;;;;5121187;27;20185;-75
2022/05/30 03:47:18;;;;;;;12.63;3.05;;;;;;;;;;5102102;28;20296;-75
2022/05/30 03:49:46;;;;;;;12.93;2.90;;;;;;;;;;5111570;28;20201;-74
2022/05/30 03:52:14;;;;;;;8.73;3.30;;;;;;;;;;5117812;28;20289;-74
2022/05/30 03:54:41;;;;;;;6.40;2.90;;;;;;;;;;5127748;27;20186;-73
2022/05/30 03:57:07;;;;;;;14.13;3.15;;;;;;;;;;5104648;28;20296;-74
2022/05/30 03:59:33;;;;;;;8.00;2.85;;;;;;;;;;5124480;27;20287;-76
2022/05/30 04:01:59;;;;;;;9.65;3.40;;;;;;;;;;5114872;27;20188;-75
2022/05/30 04:04:26;;;;;;;10.82;3.50;;;;;;;;;;5117852;28;20732;-74
2022/05/30 04:06:52;;;;;;;9.02;3.38;;;;;;;;;;5108883;28;20227;-75
2022/05/30 04:09:20;;;;;;;6.47;3.30;;;;;;;;;;5117044;27;20236;-73
2022/05/30 04:11:55;;;;;;;10.48;3.40;;;;;;;;;;5109331;27;20204;-74
2022/05/30 04:14:41;;;;;;;9.50;3.55;;;;;;;;;;5113619;27;20197;-73
2022/05/30 04:17:21;;;;;;;12.40;3.63;;;;;;;;;;5106719;27;20733;-74
2022/05/30 04:19:47;;;;;;;12.23;3.67;;;;;;;;;;5112142;27;20196;-73
2022/05/30 04:22:14;;;;;;;10.80;3.67;;;;;;;;;;5114684;27;20564;-74
2022/05/30 04:25:06;;;;;;;12.30;3.65;;;;;;;;;;5121202;27;20197;-76
2022/05/30 04:27:32;;;;;;;11.88;3.60;;;;;;;;;;5114056;27;20269;-75
2022/05/30 04:29:59;;;;;;;7.90;3.55;;;;;;;;;;5119995;27;20212;-74
2022/05/30 04:32:27;;;;;;;10.73;3.17;;;;;;;;;;5095987;28;20174;-76
2022/05/30 04:34:55;;;;;;;10.63;3.50;;;;;;;;;;5114894;27;20563;-76
2022/05/30 04:37:22;;;;;;;6.13;3.28;;;;;;;;;;5116404;27;20673;-73
2022/05/30 04:39:53;;;;;;;10.35;3.42;;;;;;;;;;5118863;27;20181;-75
2022/05/30 04:42:37;;;;;;;9.25;3.25;;;;;;;;;;5116686;27;20437;-74
2022/05/30 04:45:22;;;;;;;8.18;3.53;;;;;;;;;;5111209;27;20203;-73
2022/05/30 04:48:01;;;;;;;11.10;3.70;;;;;;;;;;5102593;27;20335;-74
2022/05/30 04:50:28;;;;;;;9.68;3.78;;;;;;;;;;5119077;27;20292;-74
2022/05/30 04:52:55;;;;;;;8.95;3.47;;;;;;;;;;5110849;27;20330;-74
2022/05/30 04:55:44;;;;;;;12.88;4.00;;;;;;;;;;5109936;27;20192;-73
2022/05/30 04:58:19;;;;;;;10.40;3.58;;;;;;;;;;5111210;27;20167;-74
2022/05/30 05:00:48;;;;;;;10.23;3.42;;;;;;;;;;5113530;27;20189;-74
2022/05/30 05:03:18;;;;;;;14.38;4.13;;;;;;;;;;5114750;27;20219;-77
2022/05/30 05:05:44;;;;;;;9.45;3.90;;;;;;;;;;5093416;28;20254;-71
2022/05/30 05:08:16;;;;;;;11.55;4.15;;;;;;;;;;5106381;27;20169;-70
2022/05/30 05:11:14;;;;;;;13.23;4.50;;;;;;;;;;5108182;27;20196;-72
2022/05/30 05:14:03;;;;;;;6.63;3.00;;;;;;;;;;5107225;28;20230;-72
2022/05/30 05:16:49;;;;;;;17.33;2.97;;;;;;;;;;5109536;28;20209;-71
2022/05/30 05:19:15;;;;;;;12.20;2.47;;;;;;;;;;5141435;27;20208;-72
2022/05/30 05:21:43;;;;;;;9.50;2.53;;;;;;;;;;5116337;27;20184;-71
2022/05/30 05:24:10;;;;;;;11.95;2.40;;;;;;;;;;5105451;28;20219;-70
2022/05/30 05:27:05;;;;;;;10.75;2.33;;;;;;;;;;5045906;28;20195;-71
2022/05/30 05:29:32;;;;;;;14.07;2.90;;;;;;;;;;5109287;28;20208;-69
2022/05/30 05:31:59;;;;;;;6.15;2.08;;;;;;;;;;5107940;27;20188;-70
2022/05/30 05:34:25;;;;;;;8.70;1.88;;;;;;;;;;5139755;27;20279;-70
2022/05/30 05:36:52;;;;;;;7.57;1.67;;;;;;;;;;5108070;28;20185;-70
2022/05/30 05:39:19;;;;;;;9.15;2.30;;;;;;;;;;5136615;27;20190;-70
2022/05/30 05:41:51;;;;;;;12.73;2.03;;;;;;;;;;5105173;27;20544;-69
2022/05/30 05:44:18;;;;;;;7.72;2.08;;;;;;;;;;5123467;27;20188;-71
2022/05/30 05:46:45;;;;;;;8.38;1.90;;;;;;;;;;5107698;28;20199;-71
2022/05/30 05:49:12;;;;;;;14.25;2.28;;;;;;;;;;5107914;28;21883;-72
2022/05/30 05:51:39;;;;;;;7.57;1.52;;;;;;;;;;5116137;27;20248;-71
2022/05/30 05:54:08;;;;;;;6.47;1.52;;;;;;;;;;5108421;28;20205;-71
2022/05/30 05:56:34;;;;;;;8.80;1.70;;;;;;;;;;5108696;28;20205;-71
2022/05/30 05:59:04;;;;;;;7.40;1.40;;;;;;;;;;5120691;27;20225;-70
2022/05/30 06:01:32;;;;;;;5.82;1.45;;;;;;;;;;5112188;27;20185;-70
2022/05/30 06:04:00;;;;;;;9.90;1.80;;;;;;;;;;5118685;27;20189;-69
2022/05/30 06:06:45;;;;;;;9.25;1.70;;;;;;;;;;5108688;28;20203;-70
2022/05/30 06:09:14;;;;;;;5.82;2.05;;;;;;;;;;5119185;27;20217;-70
2022/05/30 06:11:51;;;;;;;8.23;1.77;;;;;;;;;;5108115;28;20185;-71
2022/05/30 06:14:17;;;;;;;5.72;1.48;;;;;;;;;;5106769;27;20185;-69
2022/05/30 06:16:46;;;;;;;4.88;1.52;;;;;;;;;;5125303;27;20208;-69
2022/05/30 06:19:15;;;;;;;5.40;1.40;;;;;;;;;;5124422;27;20185;-69
2022/05/30 06:21:42;;;;;;;7.03;1.52;;;;;;;;;;5107007;27;20181;-70
2022/05/30 06:24:10;;;;;;;6.10;1.40;;;;;;;;;;5108253;27;20192;-69
2022/05/30 06:26:45;;;;;;;4.18;1.20;;;;;;;;;;5105178;28;20254;-70
2022/05/30 06:29:17;;;;;;;2.80;1.10;;;;;;;;;;5107626;27;20200;-68
2022/05/30 06:31:44;;;;;;;3.58;1.20;;;;;;;;;;5118538;27;20194;-69
2022/05/30 06:34:10;;;;;;;5.95;1.40;;;;;;;;;;5105278;28;20192;-70
2022/05/30 06:36:40;;;;;;;3.45;1.00;;;;;;;;;;5104875;28;20189;-71
2022/05/30 06:39:07;;;;;;;3.55;0.88;;;;;;;;;;5106643;28;20778;-70
2022/05/30 06:41:40;;;;;;;4.53;0.82;;;;;;;;;;5106353;27;20334;-68
2022/05/30 06:44:11;;;;;;;2.75;0.85;;;;;;;;;;5107139;28;20704;-69
2022/05/30 06:46:55;;;;;;;3.17;0.80;;;;;;;;;;5117366;27;20249;-71
2022/05/30 06:49:40;;;;;;;1.30;0.60;;;;;;;;;;5106902;28;20222;-70
2022/05/30 06:52:11;;;;;;;2.35;0.70;;;;;;;;;;5110214;28;20181;-70
2022/05/30 06:54:37;;;;;;;2.53;0.98;;;;;;;;;;5097012;28;20523;-71
2022/05/30 07:00:06;;;;;;;1.85;0.70;;;;;;;;;;5080311;28;20657;-69
2022/05/30 07:02:37;;;;;;;3.17;0.70;;;;;;;;;;5109968;27;20734;-71
2022/05/30 07:05:22;;;;;;;5.65;0.90;;;;;;;;;;5098588;28;20628;-71
2022/05/30 07:08:09;;;;;;;3.95;1.50;;;;;;;;;;5081015;28;20189;-70
2022/05/30 07:10:42;;;;;;;3.42;1.10;;;;;;;;;;5102966;28;20572;-71
2022/05/30 07:13:13;;;;;;;4.50;1.23;;;;;;;;;;5105721;28;20730;-70
2022/05/30 07:15:40;;;;;;;3.15;1.27;;;;;;;;;;5104619;28;20181;-70
2022/05/30 07:18:11;;;;;;;3.35;1.00;;;;;;;;;;5107127;28;20710;-71
2022/05/30 07:20:39;;;;;;;4.25;1.20;;;;;;;;;;5107369;28;20181;-74
2022/05/30 07:23:23;;;;;;;4.22;0.90;;;;;;;;;;5120663;28;20187;-73
2022/05/30 07:26:12;;;;;;;8.23;1.42;;;;;;;;;;5113405;28;20257;-73
2022/05/30 07:28:57;;;;;;;4.03;1.30;;;;;;;;;;5111570;28;20725;-73
2022/05/30 07:31:41;;;;;;;2.10;0.82;;;;;;;;;;5097878;28;20246;-73
2022/05/30 07:34:37;;;;;;;5.20;1.90;;;;;;;;;;5044299;27;20203;-74
2022/05/30 07:37:22;;;;;;;5.05;1.55;;;;;;;;;;5122485;28;20226;-74
2022/05/30 07:40:05;;;;;;;8.40;1.50;;;;;;;;;;5134279;27;20569;-74
2022/05/30 07:42:55;;;;;;;8.40;1.30;;;;;;;;;;5116986;28;20221;-73
2022/05/30 07:45:27;;;;;;;4.45;1.60;;;;;;;;;;5106387;27;20272;-72
2022/05/30 07:48:10;;;;;;;7.28;1.77;;;;;;;;;;5101177;27;20539;-72
2022/05/30 07:50:48;;;;;;;3.13;1.30;;;;;;;;;;5115809;27;20605;-73
2022/05/30 07:53:42;;;;;;;5.82;1.30;;;;;;;;;;5117534;27;20185;-73
2022/05/30 07:56:20;;;;;;;4.50;1.60;;;;;;;;;;5116044;27;20189;-73
2022/05/30 07:58:48;;;;;;;6.53;1.60;;;;;;;;;;5130397;27;20217;-74
2022/05/30 08:01:16;;;;;;;5.65;1.63;;;;;;;;;;5115091;27;20650;-72
2022/05/30 08:03:44;;;;;;;5.65;1.45;;;;;;;;;;5116112;27;20551;-72
2022/05/30 08:06:30;;;;;;;3.45;1.65;;;;;;;;;;5101511;27;20196;-73
2022/05/30 08:09:15;;;;;;;5.20;1.63;;;;;;;;;;5116728;27;20221;-73
2022/05/30 08:12:01;;;;;;;9.98;1.90;;;;;;;;;;5121348;27;20310;-74
2022/05/30 08:15:02;;;;;;;3.30;1.40;;;;;;;;;;5057477;28;20198;-73
2022/05/30 08:17:45;;;;;;;4.93;1.40;;;;;;;;;;5128471;27;20193;-75
2022/05/30 08:20:13;;;;;;;6.60;1.77;;;;;;;;;;5100733;27;20267;-73
2022/05/30 08:22:40;;;;;;;7.38;1.70;;;;;;;;;;5105760;27;20225;-74
2022/05/30 08:25:14;;;;;;;4.40;1.92;;;;;;;;;;5105461;28;20190;-73
2022/05/30 08:27:44;;;;;;;7.32;1.58;;;;;;;;;;5099706;27;20694;-72
2022/05/30 08:30:13;;;;;;;6.70;1.65;;;;;;;;;;5114407;27;20779;-73
2022/05/30 08:32:44;;;;;;;5.03;1.75;;;;;;;;;;5113884;27;20649;-73
2022/05/30 08:35:29;;;;;;;7.45;1.70;;;;;;;;;;5110003;27;20191;-74
2022/05/30 08:37:57;;;;;;;9.05;1.95;;;;;;;;;;5118993;27;21622;-73
2022/05/30 08:43:14;;;;;;;6.50;1.50;;;;;;;;;;5122565;27;20232;-73
2022/05/30 08:45:50;;;;;;;5.55;1.50;;;;;;;;;;5118585;27;20654;-73
2022/05/30 08:48:37;;;;;;;3.55;1.65;;;;;;;;;;5116110;27;20189;-73
2022/05/30 08:51:09;;;;;;;3.70;1.40;;;;;;;;;;5132125;27;20214;-73
2022/05/30 08:53:46;;;;;;;5.95;2.25;;;;;;;;;;5099540;27;20643;-73
2022/05/30 08:56:33;;;;;;;5.18;1.30;;;;;;;;;;5112029;27;20264;-72
2022/05/30 08:59:29;;;;;;;8.65;1.63;;;;;;;;;;5113337;27;20181;-72
2022/05/30 09:01:59;;;;;;;3.53;1.23;;;;;;;;;;5116884;27;20280;-73
2022/05/30 09:04:44;;;;;;;6.97;1.30;;;;;;;;;;5128965;27;20201;-74
2022/05/30 09:07:14;;;;;;;2.65;1.13;;;;;;;;;;5128057;27;20180;-75
2022/05/30 09:09:48;;;;;;;7.25;1.25;;;;;;;;;;5113267;27;20331;-73
2022/05/30 09:12:31;;;;;;;5.18;1.33;;;;;;;;;;5117341;27;20181;-72
2022/05/30 09:15:23;;;;;;;5.97;1.23;;;;;;;;;;5113692;27;20185;-73
2022/05/30 09:17:58;;;;;;;6.30;1.15;;;;;;;;;;5130339;27;20531;-75
2022/05/30 09:20:24;;;;;;;3.40;1.23;;;;;;;;;;5115356;27;20221;-74
2022/05/30 09:22:52;;;;;;;4.60;1.20;;;;;;;;;;5114831;27;20262;-72
2022/05/30 09:28:36;;;;;;;3.33;0.90;;;;;;;;;;5106497;27;20688;-74
2022/05/30 09:31:23;;;;;;;7.88;1.30;;;;;;;;;;5115164;27;20574;-73
2022/05/30 09:34:31;;;;;;;6.00;1.30;;;;;;;;;;5121663;27;20579;-74
2022/05/30 09:37:26;;;;;;;4.05;1.30;;;;;;;;;;5118702;27;20245;-73
2022/05/30 09:40:00;;;;;;;10.15;1.48;;;;;;;;;;5115912;27;20653;-74
2022/05/30 09:42:34;;;;;;;6.47;1.38;;;;;;;;;;5118549;27;20304;-72
2022/05/30 09:45:12;;;;;;;9.73;1.40;;;;;;;;;;5130308;27;20180;-74
2022/05/30 09:47:59;;;;;;;5.53;1.60;;;;;;;;;;5091681;27;20287;-73
2022/05/30 09:50:32;;;;;;;9.57;1.67;;;;;;;;;;5112588;27;20237;-72
2022/05/30 09:52:58;;;;;;;8.05;1.40;;;;;;;;;;5121067;27;20219;-74
2022/05/30 09:55:36;;;;;;;2.95;1.40;;;;;;;;;;5114477;27;20178;-74
2022/05/30 09:58:10;;;;;;;3.08;0.95;;;;;;;;;;5119585;27;20201;-74
2022/05/30 10:00:52;;;;;;;5.25;1.17;;;;;;;;;;5114585;27;20181;-75
2022/05/30 10:03:29;;;;;;;5.97;1.25;;;;;;;;;;5109992;27;20653;-73
2022/05/30 10:06:12;;;;;;;7.05;1.10;;;;;;;;;;5113262;27;20645;-73
2022/05/30 10:08:39;;;;;;;4.45;1.20;;;;;;;;;;5116199;27;20676;-71
2022/05/30 10:11:32;;;;;;;4.75;1.60;;;;;;;;;;5103331;27;20184;-72
2022/05/30 10:14:00;;;;;;;3.42;1.15;;;;;;;;;;5118383;27;20715;-73
2022/05/30 10:16:47;;;;;;;5.55;1.55;;;;;;;;;;5118791;27;20206;-73
2022/05/30 10:19:23;;;;;;;6.03;1.50;;;;;;;;;;5122510;27;20192;-72
2022/05/30 10:28:50;;;;;;;5.90;1.38;;;;;;;;;;5114686;27;20273;-73
2022/05/30 10:31:37;;;;;;;5.53;1.23;;;;;;;;;;5107569;27;20216;-69
2022/05/30 10:34:08;;;;;;;3.92;1.20;;;;;;;;;;5102413;28;20185;-70
2022/05/30 10:36:44;;;;;;;6.07;1.30;;;;;;;;;;5122545;27;20181;-69
2022/05/30 10:39:21;;;;;;;2.45;0.70;;;;;;;;;;5108033;27;20180;-68
2022/05/30 10:41:58;;;;;;;3.88;0.95;;;;;;;;;;5122888;27;20900;-67
2022/05/30 10:44:29;;;;;;;6.50;1.40;;;;;;;;;;5112022;27;20252;-71
2022/05/30 10:47:01;;;;;;;6.03;1.10;;;;;;;;;;5113338;27;20268;-69
2022/05/30 10:49:34;;;;;;;7.82;1.30;;;;;;;;;;5105435;28;20220;-68
2022/05/30 10:52:04;;;;;;;3.47;1.20;;;;;;;;;;5105185;28;20649;-67
2022/05/30 10:54:40;;;;;;;2.92;1.00;;;;;;;;;;5105154;28;20597;-67
2022/05/30 10:57:13;;;;;;;9.57;1.30;;;;;;;;;;5112343;27;20637;-68
2022/05/30 10:59:41;;;;;;;4.60;1.60;;;;;;;;;;5106601;28;20192;-68
2022/05/30 11:02:26;;;;;;;2.70;1.20;;;;;;;;;;5106824;28;20173;-69
2022/05/30 11:04:56;;;;;;;5.13;1.02;;;;;;;;;;5088155;28;20172;-68
2022/05/30 11:07:38;;;;;;;8.07;1.23;;;;;;;;;;5107368;28;20257;-68
2022/05/30 11:10:29;;;;;;;3.15;1.17;;;;;;;;;;5125108;27;20275;-68
2022/05/30 11:13:17;;;;;;;5.03;1.23;;;;;;;;;;5116612;28;20592;-67
2022/05/30 11:16:02;;;;;;;5.28;1.30;;;;;;;;;;5103587;28;20180;-70
2022/05/30 11:19:21;;;;;;;5.10;1.30;;;;;;;;;;5119768;27;20643;-70
2022/05/30 11:22:49;;;;;;;8.85;1.20;;;;;;;;;;5106035;27;20200;-70
2022/05/30 11:25:17;;;;;;;5.72;1.17;;;;;;;;;;5112399;27;20193;-72
2022/05/30 11:27:52;;;;;;;195.57;24.10;;;;;;;;;;5109788;27;20182;-73
2022/05/30 11:30:27;;;;;;;8.27;2.00;;;;;;;;;;5115777;27;20204;-72
2022/05/30 11:33:00;;;;;;;6.15;1.80;;;;;;;;;;5111024;27;20212;-72
2022/05/30 11:35:37;;;;;;;6.85;1.35;;;;;;;;;;5111468;27;20200;-73
2022/05/30 11:38:20;;;;;;;4.38;1.30;;;;;;;;;;5112061;27;20634;-72
2022/05/30 11:41:02;;;;;;;2.08;0.80;;;;;;;;;;5112175;27;20193;-71
2022/05/30 11:43:45;;;;;;;3.33;1.10;;;;;;;;;;5120173;27;20300;-72
2022/05/30 11:46:17;;;;;;;7.88;1.40;;;;;;;;;;5121861;27;20588;-72
2022/05/30 11:48:57;;;;;;;2.65;1.00;;;;;;;;;;5112091;27;20213;-73
2022/05/30 11:51:30;;;;;;;3.97;0.95;;;;;;;;;;5111778;27;20199;-72
2022/05/30 11:54:04;;;;;;;6.07;0.95;;;;;;;;;;5110373;28;20648;-73
2022/05/30 11:56:38;;;;;;;2.63;1.00;;;;;;;;;;5112569;27;20180;-72
2022/05/30 11:59:16;;;;;;;6.97;1.40;;;;;;;;;;5132254;27;20272;-72
2022/05/30 12:01:44;;;;;;;5.60;1.17;;;;;;;;;;5118932;27;20210;-72
2022/05/30 12:04:29;;;;;;;4.63;1.10;;;;;;;;;;5124991;27;20180;-72
2022/05/30 12:07:20;;;;;;;6.13;1.27;;;;;;;;;;5124269;27;20821;-71
2022/05/30 12:10:10;;;;;;;1.75;1.00;;;;;;;;;;5115317;27;20204;-73
2022/05/30 12:12:42;;;;;;;5.00;0.77;;;;;;;;;;5112409;27;20275;-73
2022/05/30 12:15:27;;;;;;;6.57;1.10;;;;;;;;;;5114118;27;20272;-71
2022/05/30 12:23:50;;;;;;;6.55;1.52;;;;;;;;;;5112992;27;20185;-73
2022/05/30 12:26:16;;;;;;;3.13;1.35;;;;;;;;;;5118003;27;20208;-72
2022/05/30 12:28:42;;;;;;;4.35;1.42;;;;;;;;;;5109960;28;20660;-72
2022/05/30 12:31:09;;;;;;;4.20;1.67;;;;;;;;;;5116807;27;20177;-71
2022/05/30 12:33:36;;;;;;;4.22;1.23;;;;;;;;;;5111432;27;20193;-71
2022/05/30 12:36:11;;;;;;;5.45;1.80;;;;;;;;;;5112627;27;20290;-72
2022/05/30 12:38:56;;;;;;;3.50;1.33;;;;;;;;;;5109891;27;20221;-72
2022/05/30 12:41:41;;;;;;;3.05;1.48;;;;;;;;;;5113561;27;20533;-72
2022/05/30 12:44:23;;;;;;;6.03;1.95;;;;;;;;;;5116911;27;20628;-70
2022/05/30 12:46:52;;;;;;;11.70;1.70;;;;;;;;;;5112248;27;20593;-72
2022/05/30 12:49:30;;;;;;;6.30;1.40;;;;;;;;;;5112573;27;20304;-74
2022/05/30 12:52:02;;;;;;;3.70;1.20;;;;;;;;;;5109473;27;20193;-73
2022/05/30 12:54:37;;;;;;;4.13;1.30;;;;;;;;;;5120912;27;20197;-72
2022/05/30 12:57:07;;;;;;;3.55;1.10;;;;;;;;;;5117160;27;20185;-72
2022/05/30 12:59:35;;;;;;;5.47;1.30;;;;;;;;;;5114451;27;20188;-73
2022/05/30 13:02:02;;;;;;;4.40;1.30;;;;;;;;;;5103098;27;20177;-73
2022/05/30 13:04:29;;;;;;;3.42;1.25;;;;;;;;;;5118372;27;20208;-71
2022/05/30 13:06:59;;;;;;;2.80;1.02;;;;;;;;;;5110063;27;20192;-72
2022/05/30 13:09:35;;;;;;;4.72;1.30;;;;;;;;;;5117464;27;20674;-74
2022/05/30 13:12:02;;;;;;;5.40;1.10;;;;;;;;;;5109387;27;20196;-71
2022/05/30 13:14:39;;;;;;;6.13;1.20;;;;;;;;;;5112979;27;20195;-73
2022/05/30 13:17:17;;;;;;;3.33;1.30;;;;;;;;;;5120160;27;20189;-71
2022/05/30 13:19:45;;;;;;;4.65;1.25;;;;;;;;;;5110214;27;20633;-71
2022/05/30 13:22:12;;;;;;;4.40;1.35;;;;;;;;;;5111404;27;20292;-71
2022/05/30 13:24:39;;;;;;;4.70;0.93;;;;;;;;;;5113034;27;20971;-73
2022/05/30 13:27:05;;;;;;;3.97;1.25;;;;;;;;;;5125288;27;20207;-70
2022/05/30 13:29:33;;;;;;;2.67;0.88;;;;;;;;;;5113185;27;20697;-71
2022/05/30 13:31:59;;;;;;;4.70;1.00;;;;;;;;;;5106660;27;20274;-71
2022/05/30 13:34:28;;;;;;;7.82;1.17;;;;;;;;;;5108467;27;20170;-71
2022/05/30 13:36:55;;;;;;;2.53;1.15;;;;;;;;;;5107657;27;20726;-71
2022/05/30 13:39:21;;;;;;;3.83;0.90;;;;;;;;;;5108984;27;20192;-71
2022/05/30 13:41:48;;;;;;;2.65;1.05;;;;;;;;;;5109409;27;20196;-71
2022/05/30 13:44:20;;;;;;;4.35;0.93;;;;;;;;;;5056679;28;20314;-71
2022/05/30 13:46:48;;;;;;;2.58;0.90;;;;;;;;;;5068772;28;20217;-71
2022/05/30 13:49:14;;;;;;;4.22;1.08;;;;;;;;;;5067609;28;20214;-69
2022/05/30 13:51:44;;;;;;;3.53;1.08;;;;;;;;;;5067260;28;20214;-72
2022/05/30 13:54:11;;;;;;;4.43;1.25;;;;;;;;;;5070535;28;20273;-71
2022/05/30 13:56:39;;;;;;;3.38;1.27;;;;;;;;;;5064864;28;20544;-74
2022/05/30 13:59:16;;;;;;;6.38;1.65;;;;;;;;;;5073384;28;20273;-72
2022/05/30 14:01:42;;;;;;;2.05;0.85;;;;;;;;;;5071708;28;20193;-71
2022/05/30 14:04:12;;;;;;;3.50;0.93;;;;;;;;;;5070174;28;20186;-72
2022/05/30 14:06:40;;;;;;;4.00;1.25;;;;;;;;;;5071197;28;20186;-75
2022/05/30 14:09:12;;;;;;;7.03;0.80;;;;;;;;;;5076545;28;20214;-73
2022/05/30 14:11:40;;;;;;;1.90;0.70;;;;;;;;;;5070877;28;20548;-74
2022/05/30 14:14:06;;;;;;;4.28;0.82;;;;;;;;;;5077124;28;20189;-68
2022/05/30 14:16:35;;;;;;;105.75;15.52;;;;;;;;;;5071709;28;20596;-74
2022/05/30 14:19:03;;;;;;;5.40;1.23;;;;;;;;;;5080268;28;20175;-75
2022/05/30 14:21:31;;;;;;;6.15;0.90;;;;;;;;;;5078356;28;20205;-74
2022/05/30 14:24:13;;;;;;;4.80;0.85;;;;;;;;;;5070323;28;20181;-74
2022/05/30 14:26:40;;;;;;;4.15;1.73;;;;;;;;;;5070411;28;20166;-75
2022/05/30 14:29:07;;;;;;;6.70;0.90;;;;;;;;;;5070332;28;20194;-75
2022/05/30 14:31:34;;;;;;;3.25;1.00;;;;;;;;;;5067863;28;20578;-74
2022/05/30 14:34:17;;;;;;;2.65;0.70;;;;;;;;;;5073163;28;20193;-75
2022/05/30 14:36:49;;;;;;;5.85;0.88;;;;;;;;;;5070822;28;20194;-75
2022/05/30 14:39:24;;;;;;;1.60;0.88;;;;;;;;;;5068847;28;20244;-74
2022/05/30 14:41:53;;;;;;;6.32;1.30;;;;;;;;;;5072344;28;20218;-75
2022/05/30 14:44:20;;;;;;;2.67;0.90;;;;;;;;;;5099362;27;20273;-74
2022/05/30 14:46:46;;;;;;;2.10;0.88;;;;;;;;;;5112152;27;20192;-74
2022/05/30 14:49:33;;;;;;;2.97;1.00;;;;;;;;;;5112596;27;20657;-76
2022/05/30 14:52:02;;;;;;;4.20;1.00;;;;;;;;;;5111718;27;20241;-74
2022/05/30 14:54:34;;;;;;;6.90;1.05;;;;;;;;;;5107033;28;20184;-72
2022/05/30 14:57:02;;;;;;;2.58;0.82;;;;;;;;;;5087449;28;20185;-74
2022/05/30 14:59:37;;;;;;;8.23;1.15;;;;;;;;;;5108557;27;20181;-74
2022/05/30 15:02:04;;;;;;;1.88;0.75;;;;;;;;;;5106427;27;20180;-73
2022/05/30 15:04:31;;;;;;;2.92;0.70;;;;;;;;;;5108753;28;20250;-75
2022/05/30 15:07:11;;;;;;;2.28;0.80;;;;;;;;;;5094175;28;20294;-74
2022/05/30 15:09:43;;;;;;;4.68;1.10;;;;;;;;;;5108368;28;20212;-74
2022/05/30 15:12:10;;;;;;;5.05;2.00;;;;;;;;;;5107684;28;20196;-75
2022/05/30 15:14:36;;;;;;;3.80;0.90;;;;;;;;;;5107868;28;20185;-76
2022/05/30 15:17:02;;;;;;;3.75;1.20;;;;;;;;;;5107627;28;20177;-75
2022/05/30 15:19:28;;;;;;;2.33;0.73;;;;;;;;;;5106464;28;20192;-75
2022/05/30 15:21:58;;;;;;;3.40;1.10;;;;;;;;;;5108363;28;20240;-74
2022/05/30 15:24:31;;;;;;;3.20;0.90;;;;;;;;;;5108800;28;20640;-73
2022/05/30 15:26:58;;;;;;;27.38;5.35;;;;;;;;;;5116029;28;20190;-75
2022/05/30 15:29:35;;;;;;;4.15;0.90;;;;;;;;;;5089789;28;20304;-76
2022/05/30 15:32:06;;;;;;;5.30;1.00;;;;;;;;;;5113756;28;20187;-75
2022/05/30 15:34:32;;;;;;;3.45;0.75;;;;;;;;;;5110354;28;20306;-75
2022/05/30 15:37:00;;;;;;;3.75;1.02;;;;;;;;;;5111758;28;20189;-76
2022/05/30 15:39:27;;;;;;;8.77;1.63;;;;;;;;;;5112512;28;20317;-76
2022/05/30 15:41:55;;;;;;;3.80;1.10;;;;;;;;;;5116785;28;20187;-75
2022/05/30 15:44:24;;;;;;;2.35;0.90;;;;;;;;;;5110362;28;20235;-78
2022/05/30 15:46:51;;;;;;;5.57;1.13;;;;;;;;;;5108083;28;20177;-74
2022/05/30 15:49:19;;;;;;;3.45;1.05;;;;;;;;;;5107720;28;20205;-76